Weaver, AL (36277)

3:28 PM CDT on September 30, 2014 (GMT -0500)
RAWS MT. LONGLEAF AL US | Change Station
CLOSE
Current Station
Personal Weather Station
Location: Fort McClellan, AL
Elevation: 1049 ft
Nearby Weather Stations

Elev 1049 ft 33.72 °N, 85.76 °W | Updated 42 minutes ago

Partly Cloudy
Partly Cloudy
81 °F
Feels Like 81 °F
N
4
Wind Variable Wind from ENE
Gusts 9.0 mph

Today
High -- | Low -- °F
--% Chance of Precip.
Yesterday
High -- | Low -- °F
Precip. -- in
6:36 AM 6:28 PM
Waxing Crescent, 40% visible
Pressure 29.87 in
Visibility 10.0 miles
Clouds Few 6500 ft
Heat Index 81 °F
Dew Point 58 °F
Humidity 46%
Rainfall 0.00 in
Snow Depth Not available.
UV 5 out of 12
Pollen 5.80 out of 12
Ozone Good
PM2.5 Good
Flu Activity Not available.
METAR KANB 301953Z AUTO 01007KT 10SM FEW065 28/15 A2990 RMK AO2 SLP115 T02830150

More Conditions Fewer Conditions

Pressure 29.87 in
Visibility 10.0 miles
Clouds Few 6500 ft
Heat Index 81 °F
Dew Point 58 °F
Humidity 46%
Rainfall 0.00 in
Snow Depth Not available.
UV 5 out of 12
Pollen 5.80 out of 12
Ozone Good
PM2.5 Good
Flu Activity Not available.
METAR KANB 301953Z AUTO 01007KT 10SM FEW065 28/15 A2990 RMK AO2 SLP115 T02830150

More Conditions Fewer Conditions

10-Day Weather Forecast

Almanac

Astronomy

Sep. 30, 2014 Rise Set
Actual Time 6:36 AM CDT 6:28 PM CDT
Civil Twilight 6:12 AM CDT 6:53 PM CDT
Nautical Twilight 5:43 AM CDT 7:22 PM CDT
Astronomical Twilight 5:14 AM CDT 7:51 PM CDT
Moon 12:31 PM CDT 11:10 PM CDT
Length of Visible Light 12h 41m
Length of Day
11h 51m
Tomorrow will be 2m 4s shorter.
Waxing Crescent, 40% of the Moon is Illuminated
Today
Waxing Crescent
Oct 1
First Quarter
Oct 8
Full
Oct 15
Last Quarter
Oct 23
New

Today's Extremes

State Highs State Lows

Community

WunderPhotos

Upload Photos

1,757,740 photos uploaded!

Nearby

Air Quality

  Air Quality AQ Index Pollutant
Yesterday Good
PM10
Yesterday Good
OZONE
Current Good
PM2.5
Current Good
OZONE
Tuesday Moderate
PM2.5
Tuesday Good
OZONE
Wednesday Moderate
PM2.5
Wednesday Good
OZONE

Snow Depth

Station Depth Elevation
No new snow has been reported.

Earthquake Activity

City Distance Mag. Time & Date
No recent earthquake activity has been reported nearby.
Minimum magnitude displayed is 2.5.

Coastal Water Temperatures

Place Temperature
No Stations Reporting

Nearby Weather Stations